マナウス の空港の天気 - METARとTAF

エドワルド ゴメス国際空港(マナウス) ( SBEG / MAO ) - ブラジル アマゾナス州マナウス
飛行場実況気象(Metar)
観測時間07/16 02:00 AMT (07/16 06:00 UTC)
風向・風速静穏 0m/s
視程10km以上
天気現象
少しの雲 雲底高度 240m
気温22℃
湿度100%
気圧1014hPa
METARSBEG 160600Z 00000KT 9999 FEW008 22/22 Q1014
過去の天気等 Google飛行場航空写真 Wunderground天気予報

過去48時間のMETAR

飛行場予報(TAF)
発表時間: 7/16 00:00 AMT (7/16 04:00 UTC)
予報対象時間: 16日2時 AMT ~ 17日2時 AMT
風向・風速東北東 1m/s
視程10km以上
少しの雲 雲底高度 300m
16日4時 AMT ~ 16日6時 AMT に徐々に
風向・風速東 3m/s
16日9時 AMT ~ 16日11時 AMT に徐々に
風向・風速東北東 4m/s
全天の4割程度の雲 雲底高度 610m
16日13時 AMT ~ 16日14時 AMT に徐々に
風向・風速南南西 3m/s
全天の4割程度の雲 雲底高度 610m
少しの塔状積雲 雲底高度 760m
16日18時 AMT ~ 16日20時 AMT に徐々に
風向・風速東南東 3m/s
視程10km以上
少しの雲 雲底高度 610m
TAF COR SBEG 160400Z 1606/1706 06002KT 9999 FEW010 TN23/1608Z TX31/1618Z
BECMG 1608/1610 09005KT
BECMG 1613/1615 06008KT SCT020
BECMG 1617/1618 20005KT SCT020 FEW025TCU
BECMG 1622/1624 12005KT 9999 FEW020 RMK PFF